Bunn, NC (27508)

11:01 AM EST on February 14, 2016 (GMT -0500)
Lake Royale | | Change Station
CLOSE
Current Station
Personal Weather Station
Location: Louisburg, NC
Elevation: 210 ft
Nearby Weather Stations
Active Advisory: Winter Storm Watch

Elev 210 ft 35.96 °N, 78.20 °W | Updated 1 second ago

Clear
Clear
21.7 °F
Feels Like 22 °F
N
1.1
Wind Variable Wind from North
Gusts 2.5 mph

Today
High -- | Low -- °F
--% Chance of Precip.
Yesterday
High -- | Low -- °F
Precip. -- in
Pressure 30.59 in
Visibility 10.0 miles
Clouds Clear
Windchill 22 °F
Dew Point -5 °F
Humidity 30%
Rainfall 0.00 in
Snow Depth Not available.
7:01 AM 5:52 PM
Waxing Crescent, 43% visible
METAR KLHZ 141535Z AUTO 05006KT 10SM CLR M06/M20 A3059 RMK AO2
Pressure 30.59 in
Visibility 10.0 miles
Clouds Clear
Windchill 22 °F
Dew Point -5 °F
Humidity 30%
Rainfall 0.00 in
Snow Depth Not available.
7:01 AM 5:52 PM
Waxing Crescent, 43% visible
METAR KLHZ 141535Z AUTO 05006KT 10SM CLR M06/M20 A3059 RMK AO2

10-Day Weather Forecast

Almanac

Astronomy

Feb. 14, 2016 Rise Set
Actual Time
Civil Twilight
Nautical Twilight
Astronomical Twilight
Moon
Length of Visible Light
Length of Day
Tomorrow will be .
, % of the Moon is Illuminated

Today's Extremes

State Highs State Lows

Community

WunderPhotos

Upload Photos

1,892,819 photos uploaded!

WunderBlog® & News

Nearby

Air Quality

  Air Quality AQ Index Pollutant
Not available.

Snow Depth

Station Depth Elevation

Earthquake Activity

City Distance Mag. Time & Date
Minimum magnitude displayed is 2.5.

Coastal Water Temperatures

Place Temperature

Stations

Nearby Weather Stations

Station Location Temp. Windchill Dew Point Humidity Wind Precip. Elev Updated Type
                   

Watches & Warnings

Winter Storm Watch
Issued: 4:52 AM EST Feb. 14, 2016 – National Weather Service

... Winter Storm Watch now in effect from late tonight through
Monday afternoon...

* locations... much of the Piedmont and far northwest sandhills
of North Carolina... mainly along and northwest of a line from
Albemarle to Carthage to Raleigh to Warrenton.

* Hazard types... precipitation will start out as light snow
Sunday night before trending to sleet then freezing rain early
Monday morning... and to just rain Monday afternoon.

* Accumulations... snow accumulation of up to 2 inch... along with a
tenth of an inch or less of ice.

* Timing... wintry precipitation is expected to start tonight...
and continue through Monday morning before it transitions to all
rain Monday afternoon.

* Impacts... travel may become difficult in this area tonight
through Monday afternoon.

Precautionary/preparedness actions...

A Winter Storm Watch means there is a potential for significant
snow... sleet... or ice accumulations that may impact travel.
Continue to monitor the latest forecasts.